Time;durP1;ratioP1;P1;durP2;ratioP2;P2;SDS_P1;SDS_P2;PMS_P1;PMS_P2;Temp;Humidity;BMP_temperature;BMP_pressure;BME280_temperature;BME280_humidity;BME280_pressure;Samples;Min_cycle;Max_cycle;Signal;HPM_P1;HPM_P2
2024/04/19 00:01:42;;;;;;;2.63;1.80;;;8.70;99.90;;;;;;5524402;25;20001;-37
2024/04/19 00:04:07;;;;;;;1.90;1.73;;;8.70;99.90;;;;;;5475953;25;19998;-38
2024/04/19 00:06:33;;;;;;;5.13;2.10;;;8.60;99.90;;;;;;5526360;25;19993;-36
2024/04/19 00:08:59;;;;;;;3.47;2.20;;;8.60;99.90;;;;;;5506740;26;20795;-34
2024/04/19 00:11:25;;;;;;;4.60;2.63;;;8.60;99.90;;;;;;5530508;25;19996;-37
2024/04/19 00:13:50;;;;;;;5.63;2.35;;;8.60;99.90;;;;;;5483746;26;20009;-38
2024/04/19 00:16:16;;;;;;;3.50;2.53;;;8.60;99.90;;;;;;5516907;25;20334;-36
2024/04/19 00:18:42;;;;;;;2.42;2.17;;;8.60;99.90;;;;;;5509500;25;20029;-37
2024/04/19 00:21:07;;;;;;;4.57;2.65;;;8.60;99.90;;;;;;5524206;25;20176;-36
2024/04/19 00:23:33;;;;;;;4.25;2.88;;;8.60;99.90;;;;;;5514991;25;20016;-38
2024/04/19 00:25:59;;;;;;;3.00;2.58;;;8.60;99.90;;;;;;5521577;25;19997;-38
2024/04/19 00:28:25;;;;;;;3.17;2.55;;;8.60;99.90;;;;;;5520298;25;20444;-37
2024/04/19 00:30:55;;;;;;;3.42;2.65;;;8.60;99.90;;;;;;5512129;25;20636;-37
2024/04/19 00:33:20;;;;;;;3.17;2.67;;;8.60;99.90;;;;;;5533685;25;20023;-35
2024/04/19 00:35:46;;;;;;;3.47;2.45;;;8.60;99.90;;;;;;5542236;25;20838;-32
2024/04/19 00:38:12;;;;;;;3.92;2.40;;;8.60;99.90;;;;;;5527776;25;20000;-35
2024/04/19 00:40:38;;;;;;;4.38;2.63;;;8.60;99.90;;;;;;5518863;25;19992;-37
2024/04/19 00:43:04;;;;;;;4.57;2.83;;;8.50;99.90;;;;;;5531045;25;20370;-37
2024/04/19 00:45:35;;;;;;;3.13;2.50;;;8.60;99.90;;;;;;5502520;25;20887;-36
2024/04/19 00:48:05;;;;;;;3.42;2.40;;;8.60;99.90;;;;;;5525326;25;20013;-36
2024/04/19 00:50:34;;;;;;;3.55;2.42;;;8.50;99.90;;;;;;5505793;25;19997;-35
2024/04/19 00:53:01;;;;;;;3.38;2.40;;;8.60;99.90;;;;;;5521781;25;20008;-36
2024/04/19 00:55:28;;;;;;;2.50;2.28;;;8.50;99.90;;;;;;5544240;25;20012;-38
2024/04/19 00:57:54;;;;;;;3.20;2.33;;;8.50;99.90;;;;;;5522197;25;20008;-37
2024/04/19 01:00:29;;;;;;;2.70;1.92;;;8.50;99.90;;;;;;5491273;25;20648;-37
2024/04/19 01:02:55;;;;;;;3.03;2.10;;;8.50;99.90;;;;;;5523495;25;20028;-37
2024/04/19 01:05:23;;;;;;;2.50;2.17;;;8.50;99.90;;;;;;5504976;26;20011;-34
2024/04/19 01:07:49;;;;;;;2.65;2.10;;;8.60;99.90;;;;;;5526713;25;20339;-36
2024/04/19 01:10:18;;;;;;;3.30;2.65;;;8.60;99.90;;;;;;5507733;25;19994;-37
2024/04/19 01:12:44;;;;;;;3.72;2.70;;;8.60;99.90;;;;;;5509746;25;20683;-35
2024/04/19 01:15:25;;;;;;;2.38;2.17;;;8.60;99.90;;;;;;5513999;25;20005;-34
2024/04/19 01:17:51;;;;;;;3.88;3.17;;;8.60;99.90;;;;;;5518208;25;20025;-39
2024/04/19 01:20:16;;;;;;;3.35;2.50;;;8.60;99.90;;;;;;5472384;25;20843;-36
2024/04/19 01:22:44;;;;;;;3.00;2.70;;;8.60;99.90;;;;;;5516709;25;20638;-38
2024/04/19 01:25:23;;;;;;;4.03;3.47;;;8.60;99.90;;;;;;5518497;25;20077;-39
2024/04/19 01:27:49;;;;;;;3.38;2.28;;;8.60;99.90;;;;;;5509525;25;20001;-39
2024/04/19 01:30:14;;;;;;;5.40;2.42;;;8.60;99.90;;;;;;5532126;25;20001;-35
2024/04/19 01:32:40;;;;;;;3.83;2.67;;;8.60;99.90;;;;;;5541446;25;20001;-38
2024/04/19 01:35:15;;;;;;;5.15;2.50;;;8.60;99.90;;;;;;5527212;25;20353;-37
2024/04/19 01:37:40;;;;;;;3.83;2.65;;;8.60;99.90;;;;;;5536760;25;20013;-37
2024/04/19 01:40:06;;;;;;;4.28;2.63;;;8.60;99.90;;;;;;5510069;25;19994;-37
2024/04/19 01:42:32;;;;;;;3.92;2.53;;;8.60;99.90;;;;;;5507352;25;20024;-36
2024/04/19 01:44:58;;;;;;;3.25;2.22;;;8.70;99.90;;;;;;5529968;25;19997;-38
2024/04/19 01:47:23;;;;;;;3.25;2.10;;;8.70;99.90;;;;;;5542556;25;20001;-38
2024/04/19 01:49:49;;;;;;;3.75;2.30;;;8.60;99.90;;;;;;5519553;25;20064;-38
2024/04/19 01:52:14;;;;;;;5.07;2.03;;;8.70;99.90;;;;;;5539713;25;20408;-38
2024/04/19 01:54:40;;;;;;;2.85;1.92;;;8.70;99.90;;;;;;5518770;25;20063;-38
2024/04/19 01:57:06;;;;;;;2.88;1.70;;;8.70;99.90;;;;;;5545366;25;20084;-37
2024/04/19 01:59:31;;;;;;;3.45;1.80;;;8.60;99.90;;;;;;5520673;25;19989;-43
2024/04/19 02:01:57;;;;;;;2.78;1.88;;;8.70;99.90;;;;;;5512196;25;19989;-37
2024/04/19 02:04:23;;;;;;;2.97;1.85;;;8.70;99.90;;;;;;5524056;25;20086;-37
2024/04/19 02:06:48;;;;;;;2.45;1.50;;;8.70;99.90;;;;;;5517146;25;20052;-39
2024/04/19 02:09:14;;;;;;;2.35;1.55;;;8.70;99.90;;;;;;5521022;25;20542;-37
2024/04/19 02:11:42;;;;;;;1.65;1.40;;;8.80;99.90;;;;;;5525456;25;20009;-39
2024/04/19 02:14:20;;;;;;;1.75;1.63;;;8.80;99.90;;;;;;5518392;25;20001;-37
2024/04/19 02:16:46;;;;;;;2.67;2.28;;;8.80;99.90;;;;;;5537847;25;20083;-39
2024/04/19 02:19:11;;;;;;;4.03;2.03;;;8.80;99.90;;;;;;5491945;25;20559;-37
2024/04/19 02:21:37;;;;;;;2.83;2.15;;;8.80;99.90;;;;;;5530820;25;19993;-36
2024/04/19 02:24:06;;;;;;;3.55;2.55;;;8.80;99.90;;;;;;5514385;25;19997;-37
2024/04/19 02:26:32;;;;;;;4.40;2.60;;;8.80;99.90;;;;;;5532862;25;19997;-35
2024/04/19 02:31:45;;;;;;;3.20;2.40;;;8.70;99.90;;;;;;5531118;25;20727;-37
2024/04/19 02:34:10;;;;;;;2.38;2.17;;;8.70;99.90;;;;;;5514500;25;19997;-36
2024/04/19 02:36:39;;;;;;;2.55;1.88;;;8.70;99.90;;;;;;5532308;25;20344;-37
2024/04/19 02:39:05;;;;;;;2.78;2.20;;;8.70;99.90;;;;;;5479381;26;20013;-36
2024/04/19 02:41:30;;;;;;;3.17;2.65;;;8.70;99.90;;;;;;5520721;25;20337;-36
2024/04/19 02:43:56;;;;;;;3.42;2.00;;;8.80;99.90;;;;;;5511216;25;20001;-36
2024/04/19 02:46:22;;;;;;;3.08;2.00;;;8.80;99.90;;;;;;5533037;25;19997;-34
2024/04/19 02:48:49;;;;;;;2.50;2.10;;;8.80;99.90;;;;;;5511151;26;20012;-36
2024/04/19 02:51:15;;;;;;;3.63;2.17;;;8.80;99.90;;;;;;5527640;25;19997;-37
2024/04/19 02:53:42;;;;;;;3.35;2.20;;;8.80;99.90;;;;;;5511211;25;20006;-36
2024/04/19 02:56:08;;;;;;;2.28;2.08;;;8.80;99.90;;;;;;5523924;25;20001;-35
2024/04/19 02:58:34;;;;;;;4.03;2.65;;;8.80;99.90;;;;;;5513469;25;19989;-36
2024/04/19 03:00:59;;;;;;;2.22;1.65;;;8.80;99.90;;;;;;5518822;25;19993;-38
2024/04/19 03:03:28;;;;;;;2.70;2.08;;;8.80;99.90;;;;;;5520910;25;19994;-35
2024/04/19 03:05:54;;;;;;;2.88;2.58;;;8.80;99.90;;;;;;5512751;25;20026;-34
2024/04/19 03:08:20;;;;;;;3.10;2.05;;;8.80;99.90;;;;;;5519031;25;19998;-38
2024/04/19 03:10:46;;;;;;;3.28;2.60;;;8.80;99.90;;;;;;5485814;25;20440;-37
2024/04/19 03:13:14;;;;;;;2.63;2.42;;;8.80;99.90;;;;;;5519950;25;20440;-38
2024/04/19 03:15:40;;;;;;;2.80;2.20;;;8.70;99.90;;;;;;5546168;25;20080;-38
2024/04/19 03:18:06;;;;;;;3.33;2.38;;;8.80;99.90;;;;;;5519061;25;20002;-36
2024/04/19 03:20:32;;;;;;;2.95;2.63;;;8.80;99.90;;;;;;5513695;25;20003;-38
2024/04/19 03:22:58;;;;;;;2.83;2.20;;;8.80;99.90;;;;;;5522098;25;19993;-35
2024/04/19 03:25:23;;;;;;;3.15;2.17;;;8.80;99.90;;;;;;5545840;25;20700;-35
2024/04/19 03:27:50;;;;;;;2.65;2.45;;;8.80;99.90;;;;;;5521045;25;20397;-38
2024/04/19 03:30:34;;;;;;;2.58;2.22;;;8.80;99.90;;;;;;5538432;25;20064;-36
2024/04/19 03:33:00;;;;;;;2.47;1.90;;;8.80;99.90;;;;;;5508383;25;20029;-36
2024/04/19 03:35:25;;;;;;;2.25;2.05;;;8.80;99.90;;;;;;5547833;25;19993;-34
2024/04/19 03:37:51;;;;;;;3.17;2.00;;;8.80;99.90;;;;;;5526544;25;20825;-33
2024/04/19 03:40:16;;;;;;;3.90;2.30;;;8.80;99.90;;;;;;5534556;25;20773;-36
2024/04/19 03:42:46;;;;;;;2.13;1.95;;;8.80;99.90;;;;;;5511703;25;20040;-35
2024/04/19 03:47:56;;;;;;;2.70;2.35;;;8.80;99.90;;;;;;5526957;25;20078;-34
2024/04/19 03:50:22;;;;;;;2.45;2.20;;;8.70;99.90;;;;;;5519603;25;19994;-36
2024/04/19 03:52:47;;;;;;;2.22;1.63;;;8.70;99.90;;;;;;5502015;25;19993;-37
2024/04/19 03:55:13;;;;;;;2.30;2.10;;;8.70;99.90;;;;;;5518232;25;19989;-36
2024/04/19 03:57:39;;;;;;;2.28;2.08;;;8.70;99.90;;;;;;5514274;25;20004;-37
2024/04/19 04:00:05;;;;;;;2.30;2.10;;;8.70;99.90;;;;;;5523577;25;20456;-37
2024/04/19 04:02:31;;;;;;;2.85;2.35;;;8.70;99.90;;;;;;5511883;25;19997;-36
2024/04/19 04:04:57;;;;;;;2.10;2.00;;;8.70;99.90;;;;;;5530775;25;20007;-37
2024/04/19 04:07:22;;;;;;;3.25;3.00;;;8.80;99.90;;;;;;5512443;25;20025;-39
2024/04/19 04:09:49;;;;;;;2.88;2.67;;;8.70;99.90;;;;;;5526839;25;20002;-35
2024/04/19 04:12:14;;;;;;;3.15;2.95;;;8.70;99.90;;;;;;5475879;25;19998;-37
2024/04/19 04:14:40;;;;;;;3.30;3.03;;;8.70;99.90;;;;;;5529615;25;20034;-37
2024/04/19 04:17:05;;;;;;;2.50;2.30;;;8.70;99.90;;;;;;5515871;25;20001;-37
2024/04/19 04:19:34;;;;;;;2.80;2.60;;;8.70;99.90;;;;;;5523045;25;20011;-36
2024/04/19 04:22:00;;;;;;;2.90;2.70;;;8.80;99.90;;;;;;5546425;25;20111;-37
2024/04/19 04:24:27;;;;;;;2.80;2.60;;;8.80;99.90;;;;;;5525978;25;20595;-38
2024/04/19 04:26:53;;;;;;;3.10;2.80;;;8.80;99.90;;;;;;5545942;25;20008;-37
2024/04/19 04:29:18;;;;;;;2.65;2.45;;;8.70;99.90;;;;;;5520157;25;20074;-37
2024/04/19 04:31:44;;;;;;;2.80;2.60;;;8.80;99.90;;;;;;5533891;25;20456;-38
2024/04/19 04:34:09;;;;;;;2.60;2.40;;;8.80;99.90;;;;;;5525643;25;19998;-38
2024/04/19 04:36:35;;;;;;;2.58;2.38;;;8.80;99.90;;;;;;5482825;25;19997;-37
2024/04/19 04:39:01;;;;;;;2.10;2.00;;;8.80;99.90;;;;;;5499718;25;20340;-36
2024/04/19 04:41:26;;;;;;;2.92;2.72;;;8.80;99.90;;;;;;5525744;25;20012;-37
2024/04/19 04:43:52;;;;;;;2.45;2.25;;;8.80;99.90;;;;;;5508701;25;20002;-36
2024/04/19 04:46:17;;;;;;;2.35;2.20;;;8.90;99.90;;;;;;5527439;25;20009;-37
2024/04/19 04:48:43;;;;;;;2.70;2.50;;;8.80;99.90;;;;;;5509261;25;19998;-36
2024/04/19 04:51:08;;;;;;;2.85;2.35;;;8.80;99.90;;;;;;5526122;25;19993;-36
2024/04/19 04:53:35;;;;;;;2.00;1.90;;;8.90;99.90;;;;;;5506253;26;20772;-35
2024/04/19 04:56:00;;;;;;;1.90;1.80;;;8.90;99.90;;;;;;5529519;25;20009;-38
2024/04/19 04:58:26;;;;;;;2.30;2.10;;;8.90;99.90;;;;;;5507988;25;19997;-41
2024/04/19 05:00:55;;;;;;;2.00;1.90;;;8.90;99.90;;;;;;5502679;25;20001;-39
2024/04/19 05:03:20;;;;;;;1.88;1.77;;;8.90;99.90;;;;;;5513038;25;20000;-38
2024/04/19 05:05:46;;;;;;;1.75;1.65;;;9.00;99.90;;;;;;5529292;25;20853;-37
2024/04/19 05:08:11;;;;;;;1.90;1.80;;;9.00;99.90;;;;;;5509557;25;20732;-38
2024/04/19 05:10:37;;;;;;;2.30;2.10;;;9.00;99.90;;;;;;5522402;25;20009;-38
2024/04/19 05:13:03;;;;;;;2.20;2.10;;;9.00;99.90;;;;;;5515332;25;20011;-36
2024/04/19 05:15:28;;;;;;;2.00;1.90;;;9.00;99.90;;;;;;5517633;25;20012;-39
2024/04/19 05:17:54;;;;;;;2.00;1.90;;;9.00;99.90;;;;;;5520021;25;20042;-37
2024/04/19 05:20:21;;;;;;;2.10;2.00;;;9.00;99.90;;;;;;5497884;25;19994;-36
2024/04/19 05:22:46;;;;;;;2.00;1.90;;;9.10;99.90;;;;;;5520667;25;19997;-38
2024/04/19 05:25:12;;;;;;;2.20;2.10;;;9.10;99.90;;;;;;5541727;25;20023;-39
2024/04/19 05:27:38;;;;;;;2.13;1.90;;;9.20;99.90;;;;;;5523283;25;20044;-35
2024/04/19 05:30:05;;;;;;;2.45;2.28;;;9.20;99.90;;;;;;5489507;25;20006;-37
2024/04/19 05:32:30;;;;;;;1.90;1.80;;;9.20;99.90;;;;;;5497101;25;20000;-37
2024/04/19 05:34:56;;;;;;;2.10;1.90;;;9.20;99.90;;;;;;5546727;25;20037;-38
2024/04/19 05:37:21;;;;;;;2.10;1.98;;;9.30;99.90;;;;;;5519402;25;20533;-37
2024/04/19 05:39:50;;;;;;;2.40;2.20;;;9.30;99.90;;;;;;5545214;25;20003;-36
2024/04/19 05:42:16;;;;;;;2.00;1.90;;;9.30;99.90;;;;;;5522239;25;20018;-35
2024/04/19 05:44:41;;;;;;;2.13;2.00;;;9.40;99.90;;;;;;5507032;25;19990;-34
2024/04/19 05:47:09;;;;;;;1.70;1.60;;;9.40;99.90;;;;;;5518764;25;20004;-33
2024/04/19 05:49:35;;;;;;;2.30;2.10;;;9.40;99.90;;;;;;5487416;25;20004;-38
2024/04/19 05:52:00;;;;;;;3.05;2.40;;;9.40;99.90;;;;;;5500800;25;20096;-39
2024/04/19 05:54:35;;;;;;;2.35;2.15;;;9.50;99.90;;;;;;5538610;25;20830;-37
2024/04/19 05:57:01;;;;;;;2.88;2.67;;;9.60;99.90;;;;;;5520546;25;20860;-37
2024/04/19 05:59:26;;;;;;;2.20;2.00;;;9.60;99.90;;;;;;5536681;25;19989;-38
2024/04/19 06:01:52;;;;;;;2.00;1.80;;;9.60;99.90;;;;;;5539515;25;20066;-38
2024/04/19 06:04:20;;;;;;;1.95;1.60;;;9.70;99.90;;;;;;5531821;25;20090;-38
2024/04/19 06:06:46;;;;;;;2.45;1.92;;;9.70;99.90;;;;;;5543855;25;20041;-38
2024/04/19 06:09:11;;;;;;;2.65;1.95;;;9.80;99.90;;;;;;5527283;25;19996;-38
2024/04/19 06:11:37;;;;;;;2.90;2.33;;;9.80;99.90;;;;;;5545202;25;20008;-39
2024/04/19 06:14:03;;;;;;;3.13;2.40;;;9.80;99.90;;;;;;5526332;25;20007;-37
2024/04/19 06:16:28;;;;;;;3.80;2.08;;;9.90;99.90;;;;;;5545070;25;20004;-38
2024/04/19 06:18:54;;;;;;;2.40;2.00;;;9.80;99.90;;;;;;5532449;25;19994;-37
2024/04/19 06:21:19;;;;;;;1.63;1.52;;;9.80;99.90;;;;;;5510693;26;20004;-36
2024/04/19 06:23:45;;;;;;;2.20;1.60;;;9.80;99.90;;;;;;5533202;25;19997;-37
2024/04/19 06:26:11;;;;;;;3.70;2.00;;;9.90;99.90;;;;;;5510237;25;20001;-38
2024/04/19 06:28:37;;;;;;;3.22;1.80;;;9.90;99.90;;;;;;5530381;25;20026;-37
2024/04/19 06:31:08;;;;;;;2.40;1.80;;;9.90;99.90;;;;;;5510775;25;20010;-36
2024/04/19 06:33:34;;;;;;;1.80;1.70;;;10.00;99.90;;;;;;5526616;25;20626;-37
2024/04/19 06:35:59;;;;;;;2.10;1.30;;;10.00;99.90;;;;;;5511230;25;20013;-35
2024/04/19 06:38:25;;;;;;;2.08;1.40;;;10.00;99.90;;;;;;5513625;25;20082;-38
2024/04/19 06:40:50;;;;;;;4.40;1.75;;;10.10;99.90;;;;;;5533683;25;20739;-38
2024/04/19 06:43:16;;;;;;;2.10;1.40;;;10.10;99.90;;;;;;5535767;25;20467;-33
2024/04/19 06:45:42;;;;;;;4.53;2.10;;;10.20;99.90;;;;;;5529249;25;20004;-35
2024/04/19 06:48:08;;;;;;;3.63;1.80;;;10.20;99.90;;;;;;5542719;25;20012;-37
2024/04/19 06:50:34;;;;;;;2.63;1.73;;;10.20;99.90;;;;;;5527709;25;19997;-36
2024/04/19 06:52:59;;;;;;;2.75;1.63;;;10.30;99.90;;;;;;5545414;25;19997;-39
2024/04/19 06:55:25;;;;;;;2.65;1.48;;;10.40;99.90;;;;;;5527748;25;20001;-38
2024/04/19 06:57:54;;;;;;;3.70;1.70;;;10.50;99.90;;;;;;5547399;25;20007;-35
2024/04/19 07:00:19;;;;;;;2.78;1.88;;;10.50;99.90;;;;;;5526011;25;20036;-39
2024/04/19 07:02:48;;;;;;;7.10;2.28;;;10.60;99.90;;;;;;5547214;25;20001;-37
2024/04/19 07:05:13;;;;;;;4.15;1.63;;;10.60;99.90;;;;;;5521491;25;20008;-36
2024/04/19 07:07:39;;;;;;;5.78;2.13;;;10.60;99.90;;;;;;5544814;25;20854;-37
2024/04/19 07:10:05;;;;;;;5.38;2.22;;;10.60;99.90;;;;;;5522580;25;20014;-37
2024/04/19 07:12:31;;;;;;;3.55;1.75;;;10.50;99.90;;;;;;5544967;25;19996;-39
2024/04/19 07:14:57;;;;;;;4.95;1.90;;;10.60;99.90;;;;;;5527092;25;20443;-38
2024/04/19 07:17:23;;;;;;;4.90;2.10;;;10.60;99.90;;;;;;5526405;25;19994;-38
2024/04/19 07:19:48;;;;;;;3.95;1.60;;;10.60;99.90;;;;;;5522823;25;20004;-34
2024/04/19 07:22:14;;;;;;;4.13;1.70;;;10.70;99.90;;;;;;5519393;25;19997;-37
2024/04/19 07:24:40;;;;;;;3.90;1.52;;;10.70;99.90;;;;;;5516116;25;20065;-37
2024/04/19 07:27:05;;;;;;;2.95;1.38;;;10.70;99.90;;;;;;5522419;25;19998;-38
2024/04/19 07:29:33;;;;;;;3.55;1.55;;;10.80;99.90;;;;;;5510241;25;20000;-36
2024/04/19 07:31:59;;;;;;;4.07;1.50;;;10.80;99.90;;;;;;5524443;25;19990;-37
2024/04/19 07:34:27;;;;;;;5.55;2.00;;;10.90;99.90;;;;;;5505733;25;19993;-39
2024/04/19 07:36:52;;;;;;;3.78;1.50;;;10.90;99.90;;;;;;5527368;25;19997;-36
2024/04/19 07:39:18;;;;;;;5.15;1.73;;;10.90;99.90;;;;;;5508757;25;20008;-37
2024/04/19 07:41:44;;;;;;;6.82;2.20;;;10.90;99.90;;;;;;5529124;25;19998;-38
2024/04/19 07:44:09;;;;;;;5.07;1.75;;;10.90;99.90;;;;;;5509110;26;20134;-35
2024/04/19 07:46:35;;;;;;;5.43;1.95;;;10.90;99.90;;;;;;5533149;25;20008;-36
2024/04/19 07:49:01;;;;;;;5.53;1.70;;;10.90;99.90;;;;;;5510653;25;20008;-37
2024/04/19 07:51:26;;;;;;;3.05;2.03;;;10.90;99.90;;;;;;5532651;25;20076;-37
2024/04/19 07:53:52;;;;;;;5.05;2.45;;;10.80;99.90;;;;;;5510135;25;20012;-38
2024/04/19 07:56:17;;;;;;;6.25;2.08;;;10.70;99.90;;;;;;5527449;25;19996;-38
2024/04/19 07:58:46;;;;;;;4.28;1.70;;;10.60;99.90;;;;;;5515756;25;20026;-37
2024/04/19 08:01:11;;;;;;;6.13;2.00;;;10.60;99.90;;;;;;5523198;25;20009;-36
2024/04/19 08:03:38;;;;;;;8.50;2.22;;;10.50;99.90;;;;;;5518741;25;20002;-38
2024/04/19 08:06:08;;;;;;;4.07;1.90;;;10.50;99.90;;;;;;5513824;25;20089;-39
2024/04/19 08:08:34;;;;;;;4.90;1.67;;;10.50;99.90;;;;;;5519393;25;20064;-37
2024/04/19 08:11:01;;;;;;;3.40;1.45;;;10.50;99.90;;;;;;5512288;25;20001;-38
2024/04/19 08:13:27;;;;;;;4.55;1.23;;;10.50;99.90;;;;;;5525267;25;20037;-36
2024/04/19 08:15:52;;;;;;;3.72;1.40;;;10.50;99.90;;;;;;5509552;25;20440;-38
2024/04/19 08:18:18;;;;;;;7.50;1.48;;;10.50;99.90;;;;;;5516789;25;20001;-36
2024/04/19 08:20:44;;;;;;;5.15;1.60;;;10.40;99.90;;;;;;5511924;25;20004;-38
2024/04/19 08:23:12;;;;;;;3.40;1.20;;;10.40;99.90;;;;;;5529651;25;20013;-37
2024/04/19 08:25:38;;;;;;;3.42;0.90;;;10.40;99.90;;;;;;5508068;26;20066;-35
2024/04/19 08:28:03;;;;;;;1.80;1.15;;;10.40;99.90;;;;;;5528052;25;20009;-38
2024/04/19 08:30:29;;;;;;;3.08;0.80;;;10.50;99.90;;;;;;5525535;25;20085;-37
2024/04/19 08:32:57;;;;;;;2.30;0.70;;;10.60;99.90;;;;;;5517354;25;19997;-38
2024/04/19 08:35:23;;;;;;;3.15;0.77;;;10.60;99.90;;;;;;5540676;25;20015;-38
2024/04/19 08:37:50;;;;;;;2.47;0.82;;;10.60;99.90;;;;;;5522452;25;19997;-35
2024/04/19 08:40:16;;;;;;;2.08;0.88;;;10.60;99.90;;;;;;5538699;25;20855;-35
2024/04/19 08:42:42;;;;;;;1.25;0.73;;;10.60;99.90;;;;;;5528978;25;20005;-37
2024/04/19 08:45:10;;;;;;;1.98;0.60;;;10.60;99.90;;;;;;5538501;25;20001;-36
2024/04/19 08:47:37;;;;;;;3.72;1.23;;;10.60;99.90;;;;;;5533342;25;19998;-37
2024/04/19 08:50:03;;;;;;;3.67;0.90;;;10.60;99.90;;;;;;5533479;25;19996;-38
2024/04/19 08:52:30;;;;;;;2.10;1.40;;;10.50;99.90;;;;;;5539865;25;20011;-39
2024/04/19 08:54:57;;;;;;;1.23;0.90;;;10.50;99.90;;;;;;5530093;25;20131;-36
2024/04/19 08:57:30;;;;;;;1.73;1.10;;;10.50;99.90;;;;;;5542627;25;20081;-38
2024/04/19 08:59:56;;;;;;;0.95;0.50;;;10.60;99.90;;;;;;5508654;25;20012;-36
2024/04/19 09:02:22;;;;;;;2.90;0.80;;;10.70;99.90;;;;;;5543823;25;20084;-36
2024/04/19 09:04:50;;;;;;;1.33;0.50;;;10.80;99.90;;;;;;5522464;25;20017;-39
2024/04/19 09:07:16;;;;;;;1.58;0.50;;;11.00;99.90;;;;;;5543510;25;20000;-35
2024/04/19 09:09:43;;;;;;;0.65;0.50;;;11.10;99.90;;;;;;5525475;25;20009;-35
2024/04/19 09:12:09;;;;;;;0.60;0.40;;;11.20;99.90;;;;;;5545704;25;20003;-38
2024/04/19 09:14:34;;;;;;;3.28;1.02;;;11.30;99.90;;;;;;5521708;25;19997;-38
2024/04/19 09:17:00;;;;;;;0.90;0.55;;;11.40;99.90;;;;;;5539916;25;20013;-37
2024/04/19 09:19:26;;;;;;;1.55;0.70;;;11.40;99.90;;;;;;5529503;25;20041;-37
2024/04/19 09:21:52;;;;;;;1.67;0.80;;;11.40;99.90;;;;;;5507075;25;20020;-37
2024/04/19 09:24:18;;;;;;;2.15;0.73;;;11.40;99.90;;;;;;5522774;25;20035;-37
2024/04/19 09:26:43;;;;;;;1.23;0.90;;;11.20;99.90;;;;;;5507119;25;19997;-37
2024/04/19 09:29:09;;;;;;;1.63;1.00;;;11.20;99.90;;;;;;5515271;25;20922;-34
2024/04/19 09:31:35;;;;;;;3.22;1.00;;;11.00;99.90;;;;;;5510848;25;19994;-37
2024/04/19 09:34:00;;;;;;;1.13;0.70;;;10.80;99.90;;;;;;5510816;25;19993;-37
2024/04/19 09:36:26;;;;;;;3.55;1.20;;;10.70;99.90;;;;;;5518323;25;20463;-35
2024/04/19 09:38:55;;;;;;;1.02;0.68;;;10.70;99.90;;;;;;5509987;25;20004;-37
2024/04/19 09:41:24;;;;;;;1.20;0.80;;;10.80;99.90;;;;;;5526387;25;19997;-38
2024/04/19 09:43:50;;;;;;;0.70;0.70;;;10.90;99.90;;;;;;5510778;25;20945;-38
2024/04/19 09:46:39;;;;;;;0.77;0.63;;;11.00;99.90;;;;;;5528692;25;21147;-37
2024/04/19 09:49:08;;;;;;;0.60;0.60;;;11.10;99.90;;;;;;5508719;25;20559;-36
2024/04/19 09:51:46;;;;;;;1.38;0.65;;;11.20;99.90;;;;;;5525870;25;20045;-36
2024/04/19 09:54:13;;;;;;;1.70;1.27;;;11.20;99.90;;;;;;5508033;25;20009;-37
2024/04/19 09:56:56;;;;;;;0.90;0.50;;;11.30;99.90;;;;;;5526907;25;20001;-38
2024/04/19 09:59:31;;;;;;;1.27;0.70;;;11.20;99.90;;;;;;5508620;25;19996;-36
2024/04/19 10:02:02;;;;;;;3.20;0.52;;;11.10;99.90;;;;;;5503391;25;20341;-38
2024/04/19 10:04:30;;;;;;;0.80;0.45;;;11.00;99.90;;;;;;5540130;25;20025;-38
2024/04/19 10:06:56;;;;;;;0.98;0.50;;;10.90;99.90;;;;;;5523611;25;20005;-39
2024/04/19 10:09:26;;;;;;;0.75;0.43;;;10.90;99.90;;;;;;5541875;25;20100;-34
2024/04/19 10:11:53;;;;;;;1.33;0.60;;;11.10;99.90;;;;;;5520121;25;20069;-38
2024/04/19 10:14:20;;;;;;;0.95;0.43;;;11.20;99.90;;;;;;5543219;25;20008;-34
2024/04/19 10:16:47;;;;;;;0.65;0.50;;;11.40;99.90;;;;;;5519259;25;19996;-36
2024/04/19 10:19:14;;;;;;;1.92;0.50;;;11.60;99.90;;;;;;5510264;25;20835;-39
2024/04/19 10:21:40;;;;;;;1.27;0.45;;;11.70;99.90;;;;;;5533323;25;20008;-38
2024/04/19 10:24:16;;;;;;;2.75;0.40;;;11.70;99.90;;;;;;5512007;26;20029;-38
2024/04/19 10:26:46;;;;;;;1.33;0.30;;;11.60;99.90;;;;;;5534516;25;20011;-38
2024/04/19 10:29:17;;;;;;;0.50;0.40;;;11.60;99.90;;;;;;5473718;26;19997;-37
2024/04/19 10:31:51;;;;;;;1.42;0.45;;;11.70;99.90;;;;;;5523123;25;20024;-38
2024/04/19 10:34:17;;;;;;;0.47;0.30;;;11.60;99.90;;;;;;5511846;25;19997;-35
2024/04/19 10:36:50;;;;;;;1.52;0.50;;;11.60;99.90;;;;;;5528472;25;20108;-36
2024/04/19 10:39:16;;;;;;;;;;;11.70;99.90;;;;;;5515522;25;20013;-37
2024/04/19 10:41:52;;;;;;;1.35;0.45;;;11.70;99.90;;;;;;5527320;25;19923;-33
2024/04/19 10:44:18;;;;;;;2.25;0.60;;;11.80;99.90;;;;;;5516830;25;20451;-36
2024/04/19 10:46:45;;;;;;;0.60;0.50;;;11.90;99.90;;;;;;5525131;25;20004;-38
2024/04/19 10:49:11;;;;;;;1.33;0.60;;;12.00;99.90;;;;;;5520539;25;20359;-37
2024/04/19 10:51:38;;;;;;;1.50;0.80;;;12.10;99.90;;;;;;5520017;25;20034;-38
2024/04/19 10:54:04;;;;;;;1.90;0.60;;;12.10;99.90;;;;;;5526212;25;20001;-37
2024/04/19 10:56:30;;;;;;;1.63;0.60;;;12.10;99.90;;;;;;5514618;25;20006;-38
2024/04/19 10:58:56;;;;;;;2.20;0.50;;;11.90;99.90;;;;;;5530144;25;20127;-35
2024/04/19 11:01:23;;;;;;;2.35;1.00;;;11.10;99.90;;;;;;5513342;25;20011;-38
2024/04/19 11:03:49;;;;;;;0.47;0.28;;;10.20;99.90;;;;;;5530936;25;19997;-41
2024/04/19 11:06:16;;;;;;;0.52;0.30;;;9.60;99.90;;;;;;5513068;25;20006;-38
2024/04/19 11:08:42;;;;;;;2.80;0.50;;;9.20;99.90;;;;;;5531646;25;20001;-39
2024/04/19 11:11:09;;;;;;;0.82;0.52;;;9.00;99.90;;;;;;5510067;25;20194;-38
2024/04/19 11:13:37;;;;;;;1.27;0.60;;;8.80;99.90;;;;;;5532350;25;20452;-38
2024/04/19 11:16:02;;;;;;;1.23;0.60;;;8.70;99.90;;;;;;5507389;25;20453;-38
2024/04/19 11:18:28;;;;;;;1.42;0.52;;;8.70;99.90;;;;;;5529680;25;20031;-37
2024/04/19 11:20:54;;;;;;;2.47;0.70;;;8.80;99.90;;;;;;5506880;25;19997;-39
2024/04/19 11:23:19;;;;;;;2.20;0.75;;;8.80;99.90;;;;;;5525952;25;20001;-38
2024/04/19 11:25:45;;;;;;;0.60;0.50;;;9.00;99.90;;;;;;5508914;25;20001;-38
2024/04/19 11:28:12;;;;;;;1.42;0.70;;;9.20;99.90;;;;;;5518210;25;20016;-39
2024/04/19 11:30:41;;;;;;;1.17;0.90;;;9.50;99.90;;;;;;5516063;25;19997;-39
2024/04/19 11:33:11;;;;;;;3.15;0.98;;;9.60;99.90;;;;;;5497823;25;19993;-39
2024/04/19 11:35:43;;;;;;;1.00;0.80;;;9.60;99.90;;;;;;5519091;25;20016;-38
2024/04/19 11:38:16;;;;;;;0.60;0.50;;;9.50;99.90;;;;;;5512317;25;20000;-41
2024/04/19 11:40:43;;;;;;;2.30;0.73;;;9.60;99.90;;;;;;5519872;25;20012;-38
2024/04/19 11:43:09;;;;;;;2.45;0.70;;;9.70;99.90;;;;;;5512449;25;19998;-38
2024/04/19 11:45:45;;;;;;;1.90;0.70;;;9.70;99.90;;;;;;5524450;25;20018;-37
2024/04/19 11:48:22;;;;;;;2.03;0.65;;;9.70;99.90;;;;;;5511382;25;20072;-37
2024/04/19 11:50:47;;;;;;;3.83;0.68;;;9.70;99.90;;;;;;5526598;25;20013;-37
2024/04/19 11:53:13;;;;;;;1.55;0.60;;;9.70;99.90;;;;;;5512507;25;20001;-36
2024/04/19 11:55:38;;;;;;;1.58;0.55;;;9.60;99.90;;;;;;5528182;25;20023;-38
2024/04/19 11:58:05;;;;;;;1.55;0.82;;;9.50;99.90;;;;;;5509157;25;20009;-37
2024/04/19 12:00:30;;;;;;;1.38;0.52;;;9.40;99.90;;;;;;5527086;25;20031;-38
2024/04/19 12:02:56;;;;;;;0.85;0.77;;;9.40;99.90;;;;;;5507164;26;20739;-39
2024/04/19 12:05:22;;;;;;;1.42;0.70;;;9.50;99.90;;;;;;5529366;25;20527;-38
2024/04/19 12:07:48;;;;;;;1.15;0.65;;;9.50;99.90;;;;;;5506356;26;19998;-39
2024/04/19 12:10:13;;;;;;;2.47;0.80;;;9.50;99.90;;;;;;5529946;25;20596;-38
2024/04/19 12:12:39;;;;;;;2.05;0.75;;;9.60;99.90;;;;;;5506603;25;19998;-38
2024/04/19 12:15:05;;;;;;;1.75;0.80;;;9.70;99.90;;;;;;5524362;25;19992;-39
2024/04/19 12:17:30;;;;;;;2.25;1.00;;;9.90;99.90;;;;;;5521526;25;20420;-39
2024/04/19 12:19:57;;;;;;;3.65;1.13;;;10.00;99.90;;;;;;5531078;25;20007;-35
2024/04/19 12:22:22;;;;;;;1.95;0.80;;;10.10;99.90;;;;;;5535530;25;20004;-37
2024/04/19 12:24:48;;;;;;;1.58;1.05;;;10.10;99.90;;;;;;5536728;25;20324;-35
2024/04/19 12:27:14;;;;;;;2.45;0.95;;;10.10;99.90;;;;;;5533127;25;20795;-37
2024/04/19 12:29:43;;;;;;;2.40;0.75;;;10.00;99.90;;;;;;5541140;25;20434;-36
2024/04/19 12:32:09;;;;;;;2.92;0.80;;;9.90;99.90;;;;;;5528753;25;20023;-38
2024/04/19 12:34:35;;;;;;;3.60;0.80;;;9.80;99.90;;;;;;5542775;25;20858;-38
2024/04/19 12:37:00;;;;;;;1.88;0.80;;;9.80;99.90;;;;;;5522457;25;19997;-38
2024/04/19 12:39:26;;;;;;;2.70;0.70;;;9.70;99.90;;;;;;5540403;25;20007;-38
2024/04/19 12:41:53;;;;;;;1.98;0.70;;;9.60;99.90;;;;;;5521684;25;20001;-38
2024/04/19 12:44:19;;;;;;;5.60;1.05;;;9.50;99.90;;;;;;5543287;25;20072;-39
2024/04/19 12:46:45;;;;;;;3.17;0.82;;;9.40;99.90;;;;;;5520074;25;20013;-39
2024/04/19 12:49:15;;;;;;;3.17;1.10;;;9.40;99.90;;;;;;5542833;25;20000;-38
2024/04/19 12:51:40;;;;;;;4.72;1.30;;;9.50;99.90;;;;;;5521647;25;20157;-37
2024/04/19 12:54:06;;;;;;;5.57;1.10;;;9.60;99.90;;;;;;5547095;25;20866;-38
2024/04/19 12:56:32;;;;;;;1.98;0.73;;;9.60;99.90;;;;;;5524769;25;19998;-36